Time;durP1;ratioP1;P1;durP2;ratioP2;P2;SDS_P1;SDS_P2;PMS_P1;PMS_P2;Temp;Humidity;BMP_temperature;BMP_pressure;BME280_temperature;BME280_humidity;BME280_pressure;Samples;Min_cycle;Max_cycle;Signal;HPM_P1;HPM_P2
2022/10/06 08:07:11;;;;;;;8.95;2.13;;;13.40;1.00;;;;;;6208657;22;20528;-89
2022/10/06 08:09:45;;;;;;;9.45;1.80;;;13.40;1.00;;;;;;6160042;23;20180;-89
2022/10/06 08:12:39;;;;;;;4.65;2.05;;;13.50;1.00;;;;;;6176377;23;20637;-89
2022/10/06 08:15:10;;;;;;;10.55;2.45;;;13.50;1.00;;;;;;6176915;23;20154;-89
2022/10/06 08:17:39;;;;;;;7.03;1.63;;;13.70;1.00;;;;;;6178861;23;20172;-89
2022/10/06 08:20:16;;;;;;;10.25;2.45;;;13.80;1.00;;;;;;6205875;23;20204;-88
2022/10/06 08:22:44;;;;;;;5.60;1.83;;;14.20;1.00;;;;;;6179039;23;20182;-88
2022/10/06 08:32:38;;;;;;;9.05;2.10;;;14.10;1.00;;;;;;6217879;23;20165;-92
2022/10/06 08:35:23;;;;;;;8.90;2.38;;;14.10;1.00;;;;;;6152328;23;20617;-89
2022/10/06 08:37:49;;;;;;;6.07;1.70;;;14.10;1.00;;;;;;6182839;23;20245;-91
2022/10/06 08:41:08;;;;;;;8.32;1.88;;;14.10;1.00;;;;;;6182556;23;20158;-91
2022/10/06 08:43:34;;;;;;;8.27;1.60;;;;;;;;;;6189920;23;20217;-92
2022/10/06 08:50:26;;;;;;;7.13;2.00;;;14.10;1.00;;;;;;6124473;23;20227;-90
2022/10/06 08:53:12;;;;;;;7.38;2.05;;;14.10;1.00;;;;;;6180541;23;20232;-90
2022/10/06 08:56:16;;;;;;;7.90;1.98;;;14.20;1.00;;;;;;6190017;23;20602;-90
2022/10/06 08:59:05;;;;;;;8.25;1.63;;;14.30;1.00;;;;;;6170713;23;20170;-91
2022/10/06 09:01:43;;;;;;;8.05;1.70;;;14.20;1.00;;;;;;6189424;23;20158;-93
2022/10/06 09:04:22;;;;;;;8.32;1.90;;;14.20;1.00;;;;;;6189573;23;20240;-91
2022/10/06 09:07:17;;;;;;;6.63;1.90;;;14.20;1.00;;;;;;6170313;23;20174;-92
2022/10/06 09:10:05;;;;;;;9.18;1.90;;;14.30;1.00;;;;;;6215919;23;20529;-93
2022/10/06 09:12:37;;;;;;;8.93;1.92;;;14.40;1.00;;;;;;6213910;23;20261;-91
2022/10/06 09:15:27;;;;;;;5.95;1.55;;;14.30;1.00;;;;;;6214113;23;20165;-90
2022/10/06 09:18:34;;;;;;;11.65;2.58;;;14.30;1.00;;;;;;6214257;23;20250;-91
2022/10/06 09:21:10;;;;;;;8.32;1.70;;;14.40;1.00;;;;;;6070163;23;20168;-92
2022/10/06 09:23:52;;;;;;;10.98;1.92;;;14.40;1.00;;;;;;6070440;23;20188;-91
2022/10/06 09:26:21;;;;;;;9.88;2.20;;;14.20;1.00;;;;;;6190933;23;20162;-90
2022/10/06 09:28:50;;;;;;;7.82;2.50;;;14.10;1.00;;;;;;6207660;23;20785;-89
2022/10/06 09:31:54;;;;;;;6.82;1.48;;;14.30;1.00;;;;;;6207606;23;20208;-91
2022/10/06 09:34:27;;;;;;;7.30;1.45;;;14.50;1.00;;;;;;6212811;23;20180;-91
2022/10/06 09:37:11;;;;;;;7.80;1.88;;;14.60;1.00;;;;;;6212957;23;20165;-91
2022/10/06 09:43:28;;;;;;;11.60;2.20;;;14.80;1.00;;;;;;6215259;23;20574;-91
2022/10/06 09:46:16;;;;;;;6.68;1.55;;;14.70;1.00;;;;;;6197656;23;20162;-91
2022/10/06 09:48:46;;;;;;;8.35;1.38;;;14.70;1.00;;;;;;6213073;23;20175;-91
2022/10/06 13:53:50;;;;;;;4.00;1.20;;;16.20;1.00;;;;;;6207789;22;20240;-91
2022/10/06 13:56:27;;;;;;;3.33;1.23;;;16.30;1.00;;;;;;6182829;23;20157;-91
2022/10/06 13:58:53;;;;;;;4.65;1.35;;;16.20;1.00;;;;;;6181862;23;20158;-92
2022/10/06 14:01:50;;;;;;;5.68;1.35;;;16.20;1.00;;;;;;6179373;23;20702;-90
2022/10/06 14:04:17;;;;;;;4.57;1.25;;;16.20;1.00;;;;;;6149256;23;20159;-92
2022/10/06 14:06:56;;;;;;;4.18;1.40;;;16.10;1.00;;;;;;6150355;23;20162;-91
2022/10/06 14:09:25;;;;;;;4.20;1.33;;;16.10;1.00;;;;;;6151215;23;20246;-90
2022/10/06 14:12:14;;;;;;;7.38;1.77;;;16.10;1.00;;;;;;6149163;23;20162;-91
2022/10/06 14:14:47;;;;;;;5.05;1.60;;;16.10;1.00;;;;;;6172505;23;20258;-91
2022/10/06 14:17:22;;;;;;;5.95;1.38;;;16.10;1.00;;;;;;6125263;23;20155;-91
2022/10/06 14:19:49;;;;;;;6.10;1.38;;;16.10;1.00;;;;;;6123914;23;20218;-89
2022/10/06 14:22:34;;;;;;;8.20;4.30;;;16.10;1.00;;;;;;6123563;23;20187;-90
2022/10/06 14:25:00;;;;;;;12.93;6.82;;;16.10;1.00;;;;;;6149314;23;20152;-86
2022/10/06 14:27:29;;;;;;;12.07;4.10;;;16.00;1.00;;;;;;6147873;23;20559;-90
2022/10/06 14:29:55;;;;;;;20.17;9.30;;;16.00;1.00;;;;;;6148021;23;20169;-90
2022/10/06 14:32:41;;;;;;;12.57;3.55;;;16.00;1.00;;;;;;6174438;23;20685;-89
2022/10/06 14:35:13;;;;;;;12.90;4.32;;;16.00;1.00;;;;;;6124684;23;20167;-90
2022/10/06 14:37:39;;;;;;;15.00;7.40;;;16.00;1.00;;;;;;6148487;23;20155;-92
2022/10/06 14:40:05;;;;;;;13.50;5.68;;;16.00;1.00;;;;;;6172749;23;20706;-89
2022/10/06 14:42:31;;;;;;;13.88;6.85;;;16.00;1.00;;;;;;6147460;23;20194;-90
2022/10/06 14:44:59;;;;;;;14.95;7.72;;;15.90;1.00;;;;;;6147193;23;20190;-90
2022/10/06 14:47:45;;;;;;;12.95;7.40;;;15.80;1.00;;;;;;6149229;23;20182;-92
2022/10/06 14:50:11;;;;;;;18.65;10.35;;;15.70;1.00;;;;;;6147550;23;20167;-87
2022/10/06 14:52:39;;;;;;;16.17;9.27;;;15.70;1.00;;;;;;6152092;23;20199;-90
2022/10/06 14:55:46;;;;;;;12.77;7.05;;;15.80;1.00;;;;;;6172230;23;20612;-88
2022/10/06 14:58:11;;;;;;;11.48;5.68;;;15.80;1.00;;;;;;6173119;23;20173;-89
2022/10/06 15:00:39;;;;;;;13.27;6.90;;;15.70;1.00;;;;;;6176216;23;20163;-92
2022/10/06 15:03:25;;;;;;;13.15;7.22;;;15.60;1.00;;;;;;6197568;23;20215;-90
2022/10/06 15:08:48;;;;;;;13.00;7.03;;;15.40;1.00;;;;;;6172954;23;20184;-90
2022/10/06 15:11:14;;;;;;;7.43;4.18;;;15.50;1.00;;;;;;6173261;23;20666;-91
2022/10/06 15:13:40;;;;;;;7.78;3.72;;;15.50;1.00;;;;;;6197502;23;20206;-91
2022/10/06 15:16:06;;;;;;;8.80;3.28;;;15.50;1.00;;;;;;6172822;23;20624;-90
2022/10/06 15:18:34;;;;;;;7.20;2.50;;;15.40;1.00;;;;;;6173871;23;20151;-91
2022/10/06 15:21:03;;;;;;;4.43;1.38;;;15.40;1.00;;;;;;6173607;23;20511;-91
2022/10/06 15:23:29;;;;;;;4.57;1.80;;;15.40;1.00;;;;;;6199131;23;20558;-90
2022/10/06 15:29:01;;;;;;;5.90;2.42;;;15.40;1.00;;;;;;6175037;23;20509;-90
2022/10/06 15:31:40;;;;;;;7.90;1.90;;;15.20;1.00;;;;;;6198399;23;20497;-89
2022/10/06 15:34:28;;;;;;;5.63;1.98;;;15.20;1.00;;;;;;6175311;23;20961;-90
2022/10/06 15:36:56;;;;;;;5.50;2.35;;;15.10;1.00;;;;;;6171599;23;20213;-90
2022/10/06 15:39:27;;;;;;;4.60;1.20;;;15.00;1.00;;;;;;6173515;23;20163;-91
2022/10/06 15:41:55;;;;;;;7.53;1.73;;;15.00;1.00;;;;;;6175513;23;20155;-89
2022/10/06 15:44:33;;;;;;;5.00;1.73;;;14.90;1.00;;;;;;6149487;23;20193;-91
2022/10/06 15:47:45;;;;;;;5.35;1.55;;;15.00;1.00;;;;;;6174203;23;20245;-91
2022/10/06 15:50:11;;;;;;;3.78;1.10;;;14.90;1.00;;;;;;6174059;23;20720;-90
2022/10/06 15:53:21;;;;;;;5.05;1.45;;;14.90;1.00;;;;;;6174563;23;20202;-90
2022/10/06 15:56:41;;;;;;;5.93;1.65;;;14.80;1.00;;;;;;6139957;23;20163;-90
2022/10/06 15:59:16;;;;;;;4.93;1.52;;;14.60;1.00;;;;;;6119878;23;20533;-91
2022/10/06 16:02:13;;;;;;;3.40;1.30;;;14.40;1.00;;;;;;6173927;23;20642;-91
2022/10/06 16:08:23;;;;;;;7.07;2.60;;;14.30;1.00;;;;;;6142271;23;20191;-90
2022/10/06 16:10:49;;;;;;;7.55;1.52;;;14.20;1.00;;;;;;6120210;23;20170;-90
2022/10/06 16:13:23;;;;;;;6.53;1.75;;;14.10;1.00;;;;;;6092479;23;20264;-89
2022/10/06 16:16:28;;;;;;;5.65;1.50;;;14.20;1.00;;;;;;6117108;23;20160;-89
2022/10/06 16:19:35;;;;;;;5.22;1.63;;;13.90;1.00;;;;;;6134703;23;20175;-90
2022/10/06 16:22:04;;;;;;;7.75;2.72;;;13.80;1.00;;;;;;6137558;23;20206;-90
2022/10/06 16:24:35;;;;;;;6.45;2.25;;;13.70;1.00;;;;;;6150637;23;20178;-90
2022/10/06 16:27:39;;;;;;;5.53;1.95;;;13.70;1.00;;;;;;6200252;23;20226;-90
2022/10/06 16:30:51;;;;;;;5.70;2.10;;;13.60;1.00;;;;;;6174232;23;20516;-90
2022/10/06 16:37:47;;;;;;;5.03;1.40;;;13.30;1.00;;;;;;6179021;23;20173;-90
2022/10/06 16:47:58;;;;;;;4.57;2.35;;;12.90;1.00;;;;;;6087531;23;20200;-91
2022/10/06 16:50:24;;;;;;;3.63;1.80;;;12.70;1.00;;;;;;6062384;23;20582;-89
2022/10/06 16:52:50;;;;;;;4.60;2.15;;;12.70;1.00;;;;;;6085923;23;20209;-89
2022/10/06 16:55:16;;;;;;;4.03;1.67;;;12.40;1.00;;;;;;6086757;23;20176;-90
2022/10/06 16:57:42;;;;;;;4.15;1.65;;;12.40;1.00;;;;;;6165206;23;20158;-88
2022/10/06 17:00:08;;;;;;;4.60;1.70;;;12.30;1.00;;;;;;6201434;23;20163;-90
2022/10/06 17:02:37;;;;;;;6.03;2.10;;;12.20;1.00;;;;;;6176337;23;20508;-90
2022/10/06 17:06:00;;;;;;;5.60;2.35;;;12.10;1.00;;;;;;6177623;23;20197;-89
2022/10/06 17:08:31;;;;;;;4.95;2.17;;;12.20;1.00;;;;;;6176263;23;20214;-90
2022/10/06 17:11:02;;;;;;;4.93;2.33;;;12.10;1.00;;;;;;6176549;23;20170;-90
2022/10/06 17:13:28;;;;;;;3.80;2.35;;;11.80;1.00;;;;;;6173804;23;20187;-89
2022/10/06 17:16:02;;;;;;;7.07;2.10;;;11.70;1.00;;;;;;6176479;23;20220;-89
2022/10/06 17:19:13;;;;;;;4.82;2.08;;;11.70;1.00;;;;;;6179242;23;20209;-90
2022/10/06 17:21:40;;;;;;;5.45;2.20;;;11.60;1.00;;;;;;6177389;23;20222;-87
2022/10/06 17:24:08;;;;;;;4.40;1.90;;;11.60;1.00;;;;;;6202159;23;20167;-88
2022/10/06 17:26:37;;;;;;;4.82;2.33;;;11.50;1.00;;;;;;6171688;23;20159;-89
2022/10/06 17:29:08;;;;;;;4.00;1.90;;;11.40;1.00;;;;;;6174809;23;20189;-89
2022/10/06 17:31:36;;;;;;;5.75;2.00;;;11.30;1.00;;;;;;6173197;23;20155;-88
2022/10/06 17:34:11;;;;;;;5.80;1.90;;;11.20;1.00;;;;;;6172585;23;20646;-89
2022/10/06 17:36:39;;;;;;;4.53;2.10;;;11.30;1.00;;;;;;6175041;23;20342;-87
2022/10/06 17:39:05;;;;;;;5.93;2.77;;;11.10;1.00;;;;;;6173070;23;20163;-88
2022/10/06 17:41:35;;;;;;;6.30;2.20;;;10.90;1.00;;;;;;6173326;23;20167;-89
2022/10/06 17:44:12;;;;;;;7.47;2.27;;;10.90;1.00;;;;;;6147448;23;20199;-89
2022/10/06 17:46:44;;;;;;;6.30;2.33;;;10.80;1.00;;;;;;6172392;23;20165;-88
2022/10/06 17:49:11;;;;;;;7.83;2.83;;;10.90;1.00;;;;;;6172841;23;20185;-88
2022/10/06 17:51:42;;;;;;;11.93;4.03;;;10.80;1.00;;;;;;6174429;23;20178;-88
2022/10/06 17:54:12;;;;;;;8.88;2.92;;;10.60;1.00;;;;;;6172504;23;20346;-87
2022/10/06 17:56:38;;;;;;;8.20;2.80;;;10.50;1.00;;;;;;6172666;23;20634;-88
2022/10/06 17:59:07;;;;;;;7.30;2.93;;;10.50;1.00;;;;;;6173051;23;20155;-89
2022/10/06 18:01:34;;;;;;;13.73;3.53;;;10.60;1.00;;;;;;6172491;23;20649;-88
2022/10/06 18:04:04;;;;;;;5.07;2.33;;;10.50;1.00;;;;;;6172280;23;20193;-88
2022/10/06 18:06:32;;;;;;;10.37;3.90;;;10.30;1.00;;;;;;6172578;23;20170;-88
2022/10/06 18:08:59;;;;;;;8.77;4.03;;;10.40;1.00;;;;;;6172623;23;20197;-88
2022/10/06 18:11:32;;;;;;;8.37;4.07;;;10.20;1.00;;;;;;6172208;23;20169;-89
2022/10/06 18:13:59;;;;;;;7.40;3.37;;;10.30;1.00;;;;;;6174404;23;20205;-89
2022/10/06 18:16:29;;;;;;;8.97;3.20;;;10.00;1.00;;;;;;6172649;23;20165;-89
2022/10/06 18:19:00;;;;;;;8.17;3.57;;;9.90;1.00;;;;;;6173181;23;20159;-88
2022/10/06 18:21:34;;;;;;;7.23;3.03;;;11.10;1.00;;;;;;6124114;23;20163;-88
2022/10/06 18:24:27;;;;;;;6.13;2.17;;;10.90;1.00;;;;;;6174263;23;20202;-88
2022/10/06 18:26:55;;;;;;;5.80;2.47;;;10.00;1.00;;;;;;6161922;23;20189;-89
2022/10/06 18:29:27;;;;;;;4.77;2.40;;;10.20;53.40;;;;;;6174586;23;20195;-88
2022/10/06 18:31:54;;;;;;;8.37;2.20;;;10.60;1.00;;;;;;6172239;23;20604;-88
2022/10/06 20:07:02;;;;;;;4.80;2.00;;;9.90;1.00;;;;;;6166647;23;20927;-89
2022/10/06 20:09:54;;;;;;;9.37;2.20;;;9.50;1.00;;;;;;6179202;23;20851;-88
2022/10/06 20:12:40;;;;;;;4.60;2.53;;;8.60;99.90;;;;;;6179564;23;20182;-88
2022/10/06 20:15:24;;;;;;;4.17;2.00;;;7.80;1.00;;;;;;6179490;23;20178;-88
2022/10/06 20:18:11;;;;;;;6.30;2.07;;;8.60;99.90;;;;;;6175695;23;20189;-89
2022/10/06 20:21:34;;;;;;;6.07;2.20;;;9.20;99.90;;;;;;6207830;23;20199;-88
2022/10/06 20:24:21;;;;;;;6.40;2.33;;;8.50;99.90;;;;;;6177929;23;20178;-88
2022/10/06 20:27:05;;;;;;;5.43;2.23;;;9.10;99.90;;;;;;6178945;23;20590;-88
2022/10/06 20:29:33;;;;;;;5.67;2.03;;;10.00;1.00;;;;;;6177940;23;20182;-89
2022/10/06 20:32:16;;;;;;;7.53;2.07;;;8.60;99.90;;;;;;6154029;23;20280;-89
2022/10/06 20:34:42;;;;;;;7.90;2.20;;;8.50;99.90;;;;;;6169201;23;20162;-90
2022/10/06 20:37:13;;;;;;;7.80;2.50;;;8.90;99.90;;;;;;6180576;23;20532;-86
2022/10/06 20:42:30;;;;;;;8.90;2.10;;;8.20;97.80;;;;;;6206252;23;20884;-88
2022/10/06 20:45:44;;;;;;;6.43;2.27;;;8.30;83.70;;;;;;6178839;23;20228;-89
2022/10/06 20:48:52;;;;;;;6.17;2.53;;;8.60;99.90;;;;;;6179783;23;20209;-88
2022/10/06 20:51:14;;;;;;;6.57;2.30;;;9.60;99.90;;;;;;6178622;23;20170;-87
2022/10/06 20:54:03;;;;;;;8.03;2.80;;;9.70;99.90;;;;;;6179428;23;20204;-87
2022/10/06 20:56:57;;;;;;;5.53;2.20;;;8.10;99.90;;;;;;6205552;23;20681;-89
2022/10/06 21:00:16;;;;;;;;;;;;;;;;;;;;;
2022/10/06 21:03:03;;;;;;;4.93;1.97;;;9.60;94.60;;;;;;6198343;23;20197;-86
2022/10/06 21:05:32;;;;;;;5.73;2.03;;;9.20;99.90;;;;;;6202443;23;20181;-88
2022/10/06 21:08:04;;;;;;;5.70;2.20;;;8.30;99.90;;;;;;6204260;23;20186;-88
2022/10/06 21:10:54;;;;;;;5.53;2.17;;;8.60;99.90;;;;;;6204431;23;20165;-88
2022/10/06 21:13:55;;;;;;;6.87;2.70;;;8.80;34.20;;;;;;6204266;23;20182;-90
2022/10/06 21:16:36;;;;;;;4.70;2.17;;;8.40;1.00;;;;;;6203815;23;20158;-89
2022/10/06 21:19:09;;;;;;;4.90;2.07;;;8.00;10.60;;;;;;6204326;23;20170;-90
2022/10/06 21:21:59;;;;;;;6.63;2.23;;;9.70;29.50;;;;;;6203003;23;20426;-86
2022/10/06 21:24:33;;;;;;;5.20;2.17;;;8.20;46.30;;;;;;6179858;23;20189;-88
2022/10/06 21:27:17;;;;;;;6.17;2.07;;;8.00;37.50;;;;;;6206557;23;20168;-88
2022/10/06 21:29:52;;;;;;;7.93;2.43;;;8.00;99.00;;;;;;6203266;23;20555;-90
2022/10/06 21:32:41;;;;;;;;;;;;;;;;;;;;;
2022/10/06 21:35:31;;;;;;;7.97;2.53;;;8.50;99.90;;;;;;6202674;23;20237;-89
2022/10/06 21:38:00;;;;;;;5.10;1.90;;;9.70;99.90;;;;;;6204082;23;20173;-87
2022/10/06 21:41:27;;;;;;;6.97;1.87;;;8.40;99.90;;;;;;6203381;23;20174;-88
2022/10/06 21:44:14;;;;;;;5.80;2.20;;;8.50;53.80;;;;;;6159609;23;20174;-88
2022/10/06 21:47:05;;;;;;;5.53;2.20;;;9.90;77.50;;;;;;6203587;23;20694;-88
2022/10/06 21:49:37;;;;;;;7.10;2.20;;;8.30;1.00;;;;;;6208086;23;20178;-88
2022/10/06 21:52:09;;;;;;;3.70;1.90;;;8.50;1.00;;;;;;6207605;23;20174;-89
2022/10/06 21:54:52;;;;;;;4.63;1.97;;;9.50;1.00;;;;;;6203515;23;20155;-88
2022/10/06 21:57:27;;;;;;;5.87;2.13;;;9.50;1.00;;;;;;6204050;23;20164;-89
2022/10/06 22:00:00;;;;;;;5.63;1.90;;;8.20;53.40;;;;;;6178061;23;20443;-89
2022/10/06 22:02:49;;;;;;;8.30;2.07;;;8.30;3.20;;;;;;6202919;23;20197;-89
2022/10/06 22:05:27;;;;;;;4.67;1.73;;;8.30;53.30;;;;;;6200957;23;20178;-89
2022/10/06 22:08:32;;;;;;;5.77;2.03;;;8.50;62.90;;;;;;6202381;23;20162;-89
2022/10/06 22:11:19;;;;;;;7.53;2.10;;;8.20;69.40;;;;;;6181471;23;20180;-90
2022/10/06 22:13:48;;;;;;;4.83;1.80;;;8.10;29.30;;;;;;6203395;23;20178;-89
2022/10/06 22:16:27;;;;;;;7.67;2.37;;;7.60;86.30;;;;;;6202810;23;20158;-88
2022/10/06 22:19:00;;;;;;;4.87;2.10;;;8.20;91.80;;;;;;6203476;23;20177;-90
2022/10/06 22:21:34;;;;;;;6.37;2.07;;;7.50;99.90;;;;;;6204957;23;20599;-90
2022/10/06 22:24:02;;;;;;;5.33;2.33;;;8.90;99.90;;;;;;6202643;23;20189;-89
2022/10/06 22:26:30;;;;;;;7.30;1.93;;;8.90;99.90;;;;;;6204159;23;20491;-90
2022/10/06 22:29:01;;;;;;;11.87;2.73;;;9.00;1.00;;;;;;6202600;23;20208;-88
2022/10/06 22:31:29;;;;;;;6.37;2.10;;;8.30;99.90;;;;;;6201454;23;20190;-90
2022/10/06 22:34:09;;;;;;;4.97;2.10;;;8.50;99.90;;;;;;6202585;23;20538;-87
